createdAt,value
2024-01-01T00:02:23.446Z,76.67
2024-01-01T00:04:50.571Z,76.57
2024-01-01T00:07:19.238Z,76.97
2024-01-01T00:09:46.480Z,76.22
2024-01-01T00:12:13.735Z,76.68
2024-01-01T00:14:40.629Z,76.43
2024-01-01T00:17:08.090Z,76.66
2024-01-01T00:19:36.543Z,76.34
2024-01-01T00:22:05.105Z,76.55
2024-01-01T00:24:32.338Z,75.87
2024-01-01T00:26:59.396Z,75.11
2024-01-01T00:29:33.536Z,75.06
2024-01-01T00:32:07.149Z,75.64
2024-01-01T00:34:36.922Z,75.77
2024-01-01T00:37:04.663Z,75.87
2024-01-01T00:39:31.524Z,75.69
2024-01-01T00:41:58.534Z,75.23
2024-01-01T00:44:25.465Z,75.91
2024-01-01T00:46:53.143Z,76.17
2024-01-01T00:49:20.450Z,75.81
2024-01-01T00:51:48.919Z,75.71
2024-01-01T00:54:16.021Z,75.50
2024-01-01T00:56:43.633Z,76.30
2024-01-01T00:59:14.976Z,75.31
2024-01-01T01:01:43.448Z,75.63
2024-01-01T01:04:13.520Z,75.68
2024-01-01T01:06:42.391Z,76.44
2024-01-01T01:09:13.714Z,76.90
2024-01-01T01:11:41.793Z,77.37
2024-01-01T01:14:11.941Z,77.67
2024-01-01T01:16:40.343Z,76.93
2024-01-01T01:19:08.190Z,77.72
2024-01-01T01:21:35.397Z,77.06
2024-01-01T01:24:03.051Z,77.80
2024-01-01T01:26:32.455Z,77.28
2024-01-01T01:28:59.352Z,77.39
2024-01-01T01:31:26.599Z,77.89
2024-01-01T01:33:53.574Z,77.60
2024-01-01T01:36:20.501Z,78.07
2024-01-01T01:38:47.393Z,77.51
2024-01-01T01:41:14.786Z,77.26
2024-01-01T01:43:44.738Z,76.80
2024-01-01T01:46:15.499Z,77.01
2024-01-01T01:48:44.486Z,77.55
2024-01-01T01:51:12.599Z,78.31
2024-01-01T01:53:41.940Z,78.47
2024-01-01T01:56:10.202Z,78.62
2024-01-01T01:58:38.168Z,78.53
2024-01-01T02:01:07.995Z,78.50
2024-01-01T02:03:35.958Z,79.73
2024-01-01T02:06:03.589Z,79.31
2024-01-01T02:08:30.579Z,79.43
2024-01-01T02:10:59.017Z,79.85
2024-01-01T02:13:29.974Z,79.47
2024-01-01T02:15:58.388Z,78.79
2024-01-01T02:18:27.244Z,79.54
2024-01-01T02:20:57.015Z,79.09
2024-01-01T02:23:25.501Z,79.46
2024-01-01T02:25:57.502Z,78.95
2024-01-01T02:28:24.487Z,79.07
2024-01-01T02:30:51.412Z,79.51
2024-01-01T02:33:18.475Z,79.24
2024-01-01T02:35:46.545Z,79.59
2024-01-01T02:38:14.692Z,79.88
2024-01-01T02:40:43.542Z,79.28
2024-01-01T02:43:10.943Z,79.97
2024-01-01T02:45:39.021Z,80.19
2024-01-01T02:48:07.587Z,79.64
2024-01-01T02:50:35.022Z,79.89
2024-01-01T02:53:02.930Z,78.80
2024-01-01T02:55:29.832Z,78.97
2024-01-01T02:57:59.079Z,79.27
2024-01-01T03:00:32.111Z,78.95
2024-01-01T03:03:02.044Z,78.93
2024-01-01T03:05:29.548Z,78.66
2024-01-01T03:07:58.899Z,78.49
2024-01-01T03:10:25.858Z,77.99
2024-01-01T03:12:53.613Z,78.15
2024-01-01T03:15:22.105Z,78.42
2024-01-01T03:17:50.021Z,77.80
2024-01-01T03:20:17.180Z,78.53
2024-01-01T03:22:44.351Z,78.13
2024-01-01T03:25:11.320Z,78.10
2024-01-01T03:27:39.160Z,77.54
2024-01-01T03:30:08.087Z,77.92
2024-01-01T03:32:37.179Z,78.45
2024-01-01T03:35:05.425Z,78.81
2024-01-01T03:37:32.527Z,79.04
2024-01-01T03:39:59.735Z,78.59
2024-01-01T03:42:27.128Z,78.05
2024-01-01T03:44:54.029Z,78.06
2024-01-01T03:47:22.475Z,77.95
2024-01-01T03:49:51.986Z,77.67
2024-01-01T03:52:21.216Z,77.96
2024-01-01T03:54:48.468Z,77.85
2024-01-01T03:57:15.409Z,77.23
2024-01-01T03:59:42.800Z,77.32
2024-01-01T04:02:10.543Z,77.63
2024-01-01T04:04:37.766Z,76.96
2024-01-01T04:07:06.132Z,77.11
2024-01-01T04:09:33.174Z,77.47
2024-01-01T04:12:00.398Z,76.70
2024-01-01T04:14:27.342Z,76.05
2024-01-01T04:16:54.387Z,75.61
2024-01-01T04:19:21.871Z,75.63
2024-01-01T04:21:51.085Z,76.01
2024-01-01T04:24:19.303Z,75.40
2024-01-01T04:26:46.545Z,76.28
2024-01-01T04:29:13.660Z,76.87
2024-01-01T04:31:40.912Z,77.34
2024-01-01T04:34:07.834Z,77.06
2024-01-01T04:36:34.994Z,76.83
2024-01-01T04:39:01.964Z,77.63
2024-01-01T04:41:30.597Z,77.68
2024-01-01T04:43:57.822Z,77.29
2024-01-01T04:46:24.806Z,77.07
2024-01-01T04:48:54.512Z,77.90
2024-01-01T04:51:24.052Z,77.91
2024-01-01T04:53:52.786Z,78.27
2024-01-01T04:56:20.138Z,78.08
2024-01-01T04:58:49.201Z,78.07
2024-01-01T05:01:16.383Z,77.94
2024-01-01T05:03:43.372Z,77.67
2024-01-01T05:06:10.640Z,78.82
2024-01-01T05:08:37.555Z,78.02
2024-01-01T05:11:05.770Z,77.65
2024-01-01T05:13:32.867Z,77.34
2024-01-01T05:16:02.501Z,77.76
2024-01-01T05:18:29.668Z,78.02
2024-01-01T05:20:57.011Z,77.59
2024-01-01T05:23:23.946Z,76.99
2024-01-01T05:25:52.307Z,76.98
2024-01-01T05:28:19.206Z,77.11
2024-01-01T05:30:46.238Z,77.03
2024-01-01T05:33:16.098Z,76.75
2024-01-01T05:35:43.224Z,76.37
2024-01-01T05:38:10.381Z,76.95
2024-01-01T05:40:37.668Z,76.33
2024-01-01T05:43:05.097Z,76.70
2024-01-01T05:45:32.398Z,76.14
2024-01-01T05:48:01.170Z,75.03
2024-01-01T05:50:29.681Z,75.08
2024-01-01T05:52:56.660Z,74.54
2024-01-01T05:55:23.649Z,74.08
2024-01-01T05:57:50.942Z,73.30
2024-01-01T06:00:19.725Z,73.70
2024-01-01T06:02:46.572Z,73.17
2024-01-01T06:05:13.571Z,73.19
2024-01-01T06:07:41.860Z,72.62
2024-01-01T06:10:09.852Z,72.71
2024-01-01T06:12:36.804Z,72.04
2024-01-01T06:15:04.493Z,71.32
2024-01-01T06:17:32.121Z,71.02
2024-01-01T06:19:59.068Z,70.77
2024-01-01T06:22:27.411Z,71.04
2024-01-01T06:24:55.742Z,71.00
2024-01-01T06:27:22.891Z,71.62
2024-01-01T06:29:50.189Z,71.72
2024-01-01T06:32:19.095Z,71.70
2024-01-01T06:34:46.117Z,70.88
2024-01-01T06:37:13.815Z,71.34
2024-01-01T06:39:41.710Z,71.00
2024-01-01T06:42:10.181Z,70.42
2024-01-01T06:44:39.040Z,70.99
2024-01-01T06:47:06.356Z,70.50
2024-01-01T06:49:33.484Z,70.27
2024-01-01T06:52:00.331Z,70.29
2024-01-01T06:54:27.218Z,69.88
2024-01-01T06:56:54.191Z,70.21
2024-01-01T06:59:28.111Z,70.65
2024-01-01T07:01:55.157Z,70.85
2024-01-01T07:04:22.008Z,71.17
2024-01-01T07:06:48.948Z,71.78
2024-01-01T07:09:17.313Z,71.58
2024-01-01T07:11:46.681Z,71.94
2024-01-01T07:14:15.386Z,71.09
2024-01-01T07:16:44.851Z,71.08
2024-01-01T07:19:11.855Z,71.53
2024-01-01T07:21:38.931Z,72.12
2024-01-01T07:24:06.788Z,71.98
2024-01-01T07:26:33.690Z,71.75
2024-01-01T07:29:00.600Z,71.70
2024-01-01T07:31:30.398Z,71.76
2024-01-01T07:33:58.713Z,72.34
2024-01-01T07:36:25.595Z,71.54
2024-01-01T07:38:52.872Z,71.16
2024-01-01T07:41:19.811Z,71.40
2024-01-01T07:43:46.744Z,70.95
2024-01-01T07:46:13.659Z,70.57
2024-01-01T07:48:40.692Z,70.17
2024-01-01T07:51:10.361Z,70.54
2024-01-01T07:53:37.256Z,70.78
2024-01-01T07:56:05.532Z,70.47
2024-01-01T07:58:32.453Z,71.04
2024-01-01T08:00:59.683Z,71.27
2024-01-01T08:03:26.631Z,71.17
2024-01-01T08:05:53.913Z,70.82
2024-01-01T08:08:24.315Z,70.05
2024-01-01T08:10:53.074Z,71.09
2024-01-01T08:13:20.273Z,70.54
2024-01-01T08:15:47.152Z,70.53
2024-01-01T08:18:16.144Z,70.23
2024-01-01T08:20:43.254Z,70.29
2024-01-01T08:23:10.373Z,69.84
2024-01-01T08:25:39.878Z,68.72
2024-01-01T08:28:07.792Z,67.65
2024-01-01T08:30:34.816Z,67.76
2024-01-01T08:33:01.957Z,68.34
2024-01-01T08:35:29.525Z,65.95
2024-01-01T08:37:56.533Z,66.34
2024-01-01T08:40:25.949Z,65.94
2024-01-01T08:42:56.802Z,64.41
2024-01-01T08:45:25.205Z,62.84
2024-01-01T08:47:53.011Z,63.89
2024-01-01T08:50:20.210Z,62.44
2024-01-01T08:52:47.294Z,61.27
2024-01-01T08:55:14.992Z,61.65
2024-01-01T08:57:41.834Z,60.40
2024-01-01T09:00:12.053Z,59.50
2024-01-01T09:02:39.303Z,56.67
2024-01-01T09:05:07.734Z,57.46
2024-01-01T09:07:34.673Z,57.25
2024-01-01T09:10:03.935Z,58.72
2024-01-01T09:12:30.885Z,61.55
2024-01-01T09:14:58.178Z,60.85
2024-01-01T09:17:26.792Z,61.67
2024-01-01T09:19:53.860Z,62.47
2024-01-01T09:22:20.781Z,61.89
2024-01-01T09:24:47.702Z,60.91
2024-01-01T09:27:14.656Z,63.16
2024-01-01T09:29:41.587Z,63.42
2024-01-01T09:32:08.756Z,63.42
2024-01-01T09:34:38.124Z,62.28
2024-01-01T09:37:05.099Z,63.21
2024-01-01T09:39:32.085Z,61.41
2024-01-01T09:42:05.645Z,62.16
2024-01-01T09:44:32.721Z,63.73
2024-01-01T09:47:02.715Z,63.71
2024-01-01T09:49:29.643Z,64.67
2024-01-01T09:51:58.011Z,64.51
2024-01-01T09:54:25.563Z,63.05
2024-01-01T09:56:52.522Z,63.13
2024-01-01T09:59:35.600Z,63.98
2024-01-01T10:02:04.523Z,58.84
2024-01-01T10:04:31.572Z,59.04
2024-01-01T10:07:03.096Z,57.54
2024-01-01T10:09:31.018Z,53.11
2024-01-01T10:12:08.284Z,51.90
2024-01-01T10:14:47.492Z,50.44
2024-01-01T10:17:16.818Z,50.13
2024-01-01T10:19:48.146Z,48.12
2024-01-01T10:22:17.043Z,45.25
2024-01-01T10:24:44.003Z,41.58
2024-01-01T10:27:14.649Z,39.78
2024-01-01T10:29:43.418Z,40.36
2024-01-01T10:32:13.472Z,39.10
2024-01-01T10:34:43.086Z,42.15
2024-01-01T10:37:10.053Z,44.34
2024-01-01T10:39:41.090Z,45.65
2024-01-01T10:42:08.939Z,45.74
2024-01-01T10:44:36.080Z,46.87
2024-01-01T10:47:08.354Z,47.93
2024-01-01T10:49:38.008Z,50.92
2024-01-01T10:52:44.656Z,51.08
2024-01-01T10:55:54.643Z,50.80
2024-01-01T10:58:45.028Z,52.54
2024-01-01T11:01:18.981Z,51.43
2024-01-01T11:03:47.173Z,51.59
2024-01-01T11:06:25.537Z,52.39
2024-01-01T11:08:54.029Z,53.09
2024-01-01T11:11:28.168Z,55.37
2024-01-01T11:13:56.330Z,54.96
2024-01-01T11:16:24.579Z,54.24
2024-01-01T11:18:52.939Z,53.17
2024-01-01T11:21:32.106Z,53.00
2024-01-01T11:24:19.837Z,51.25
2024-01-01T11:26:47.965Z,50.74
2024-01-01T11:29:30.255Z,47.02
2024-01-01T11:32:04.153Z,45.49
2024-01-01T11:34:37.740Z,46.14
2024-01-01T11:37:07.609Z,46.73
2024-01-01T11:39:35.022Z,46.41
2024-01-01T11:42:03.621Z,44.25
2024-01-01T11:44:30.690Z,42.90
2024-01-01T11:46:57.737Z,43.45
2024-01-01T11:49:25.308Z,43.72
2024-01-01T11:51:55.795Z,41.70
2024-01-01T11:54:23.026Z,39.29
2024-01-01T11:56:53.353Z,38.96
2024-01-01T11:59:21.816Z,37.88
2024-01-01T12:01:48.956Z,38.22
2024-01-01T12:04:17.813Z,39.96
2024-01-01T12:06:50.830Z,40.29
2024-01-01T12:09:18.650Z,40.08
2024-01-01T12:11:45.646Z,43.06
2024-01-01T12:14:13.507Z,45.09
2024-01-01T12:16:43.022Z,45.45
2024-01-01T12:19:10.066Z,45.29
2024-01-01T12:21:42.344Z,46.55
2024-01-01T12:24:14.146Z,47.22
2024-01-01T12:26:42.124Z,48.82
2024-01-01T12:29:14.560Z,48.83
2024-01-01T12:31:44.500Z,49.83
2024-01-01T12:34:16.062Z,50.44
2024-01-01T12:36:44.393Z,50.45
2024-01-01T12:39:11.579Z,51.04
2024-01-01T12:41:39.299Z,50.58
2024-01-01T12:44:06.497Z,49.59
2024-01-01T12:46:33.470Z,49.24
2024-01-01T12:49:02.151Z,49.74
2024-01-01T12:51:30.156Z,50.33
2024-01-01T12:53:59.081Z,50.67
2024-01-01T12:56:27.598Z,50.84
2024-01-01T12:58:55.201Z,51.65
2024-01-01T13:01:23.760Z,51.25
2024-01-01T13:03:50.946Z,52.56
2024-01-01T13:06:20.691Z,51.82
2024-01-01T13:08:49.663Z,51.59
2024-01-01T13:11:17.604Z,51.95
2024-01-01T13:13:44.645Z,52.74
2024-01-01T13:16:11.628Z,52.16
2024-01-01T13:18:38.762Z,51.27
2024-01-01T13:21:06.170Z,51.62
2024-01-01T13:23:36.181Z,51.77
2024-01-01T13:26:03.167Z,52.62
2024-01-01T13:28:30.299Z,52.54
2024-01-01T13:30:57.195Z,52.33
2024-01-01T13:33:24.278Z,52.96
2024-01-01T13:35:51.186Z,52.56
2024-01-01T13:38:18.427Z,53.59
2024-01-01T13:40:48.873Z,53.36
2024-01-01T13:43:15.876Z,53.29
2024-01-01T13:45:46.404Z,53.45
2024-01-01T13:48:14.407Z,54.24
2024-01-01T13:50:42.754Z,54.79
2024-01-01T13:53:17.241Z,53.74
2024-01-01T13:55:45.794Z,53.94
2024-01-01T13:58:15.093Z,54.14
2024-01-01T14:00:42.399Z,53.82
2024-01-01T14:03:09.684Z,53.56
2024-01-01T14:05:37.319Z,54.86
2024-01-01T14:08:06.517Z,54.04
2024-01-01T14:10:33.524Z,54.91
2024-01-01T14:13:01.802Z,54.32
2024-01-01T14:15:30.000Z,55.30
2024-01-01T14:17:57.014Z,55.12
2024-01-01T14:20:26.117Z,55.96
2024-01-01T14:22:53.902Z,56.02
2024-01-01T14:25:23.061Z,55.95
2024-01-01T14:27:50.184Z,56.22
2024-01-01T14:30:18.681Z,56.37
2024-01-01T14:32:46.173Z,56.45
2024-01-01T14:35:15.059Z,56.54
2024-01-01T14:37:44.508Z,56.73
2024-01-01T14:40:13.213Z,56.67
2024-01-01T14:42:43.074Z,56.58
2024-01-01T14:45:11.684Z,56.83
2024-01-01T14:47:40.334Z,57.13
2024-01-01T14:50:10.036Z,57.03
2024-01-01T14:52:37.301Z,56.87
2024-01-01T14:55:05.084Z,57.27
2024-01-01T14:57:32.116Z,57.46
2024-01-01T14:59:59.138Z,57.27
2024-01-01T15:02:26.077Z,57.54
2024-01-01T15:04:54.953Z,57.72
2024-01-01T15:07:22.916Z,57.22
2024-01-01T15:09:50.340Z,57.36
2024-01-01T15:12:18.620Z,58.40
2024-01-01T15:14:45.873Z,58.00
2024-01-01T15:17:13.856Z,58.44
2024-01-01T15:19:40.877Z,58.60
2024-01-01T15:22:09.406Z,58.12
2024-01-01T15:24:37.475Z,58.25
2024-01-01T15:27:04.920Z,58.16
2024-01-01T15:29:34.336Z,58.02
2024-01-01T15:32:01.662Z,57.93
2024-01-01T15:34:28.604Z,57.66
2024-01-01T15:36:56.185Z,58.13
2024-01-01T15:39:24.442Z,57.77
2024-01-01T15:41:51.587Z,59.09
2024-01-01T15:44:19.395Z,57.89
2024-01-01T15:46:47.313Z,57.96
2024-01-01T15:49:14.406Z,58.30
2024-01-01T15:51:41.842Z,57.64
2024-01-01T15:54:09.138Z,58.54
2024-01-01T15:56:42.274Z,57.52
2024-01-01T15:59:11.966Z,58.11
2024-01-01T16:01:38.917Z,57.80
2024-01-01T16:04:10.538Z,58.47
2024-01-01T16:06:38.933Z,58.42
2024-01-01T16:09:05.799Z,58.17
2024-01-01T16:11:33.100Z,58.07
2024-01-01T16:14:01.414Z,57.78
2024-01-01T16:16:29.673Z,57.48
2024-01-01T16:21:24.128Z,57.83
2024-01-01T16:23:51.321Z,57.50
2024-01-01T16:26:18.745Z,57.65
2024-01-01T16:28:45.800Z,57.65
2024-01-01T16:31:20.569Z,57.87
2024-01-01T16:33:48.031Z,57.91
2024-01-01T16:36:17.742Z,57.19
2024-01-01T16:38:47.238Z,57.51
2024-01-01T16:41:14.434Z,58.21
2024-01-01T16:43:42.282Z,58.25
2024-01-01T16:46:09.848Z,58.19
2024-01-01T16:48:42.286Z,58.84
2024-01-01T16:51:09.373Z,58.33
2024-01-01T16:53:38.256Z,58.15
2024-01-01T16:56:09.369Z,58.60
2024-01-01T16:58:36.732Z,59.17
2024-01-01T17:01:04.160Z,59.31
2024-01-01T17:03:31.429Z,59.47
2024-01-01T17:06:01.374Z,60.53
2024-01-01T17:08:28.933Z,60.40
2024-01-01T17:10:56.040Z,60.34
2024-01-01T17:13:23.994Z,60.83
2024-01-01T17:15:51.388Z,60.72
2024-01-01T17:18:20.811Z,61.26
2024-01-01T17:20:50.776Z,61.05
2024-01-01T17:23:19.516Z,61.41
2024-01-01T17:25:50.273Z,61.60
2024-01-01T17:28:24.659Z,61.15
2024-01-01T17:30:52.078Z,61.87
2024-01-01T17:33:28.765Z,61.90
2024-01-01T17:35:55.717Z,62.38
2024-01-01T17:38:24.216Z,61.96
2024-01-01T17:40:51.707Z,61.74
2024-01-01T17:43:18.752Z,61.66
2024-01-01T17:45:46.002Z,62.18
2024-01-01T17:48:13.244Z,61.98
2024-01-01T17:50:41.760Z,62.22
2024-01-01T17:53:09.033Z,62.14
2024-01-01T17:55:40.394Z,62.05
2024-01-01T17:58:07.716Z,62.34
2024-01-01T18:00:34.993Z,62.42
2024-01-01T18:03:02.241Z,62.56
2024-01-01T18:05:29.208Z,62.91
2024-01-01T18:07:56.405Z,63.42
2024-01-01T18:10:23.657Z,63.96
2024-01-01T18:12:52.033Z,63.87
2024-01-01T18:15:19.002Z,64.10
2024-01-01T18:17:46.257Z,63.59
2024-01-01T18:20:13.599Z,64.21
2024-01-01T18:22:40.642Z,64.05
2024-01-01T18:25:10.712Z,64.12
2024-01-01T18:27:39.316Z,64.85
2024-01-01T18:30:09.829Z,64.02
2024-01-01T18:32:36.941Z,64.63
2024-01-01T18:35:05.669Z,64.82
2024-01-01T18:37:32.651Z,65.08
2024-01-01T18:39:59.664Z,64.20
2024-01-01T18:42:26.587Z,64.44
2024-01-01T18:44:53.555Z,64.54
2024-01-01T18:47:22.098Z,64.69
2024-01-01T18:49:52.613Z,65.29
2024-01-01T18:52:19.821Z,64.61
2024-01-01T18:54:47.068Z,64.94
2024-01-01T18:57:15.270Z,65.00
2024-01-01T18:59:42.242Z,64.87
2024-01-01T19:02:09.851Z,65.01
2024-01-01T19:04:38.790Z,64.49
2024-01-01T19:07:05.851Z,64.83
2024-01-01T19:09:32.842Z,64.76
2024-01-01T19:12:00.623Z,64.54
2024-01-01T19:14:27.572Z,64.72
2024-01-01T19:16:54.520Z,65.13
2024-01-01T19:19:21.504Z,65.20
2024-01-01T19:21:49.865Z,64.83
2024-01-01T19:24:17.191Z,65.03
2024-01-01T19:26:45.333Z,65.01
2024-01-01T19:29:12.518Z,65.21
2024-01-01T19:31:40.214Z,65.79
2024-01-01T19:34:08.458Z,66.18
2024-01-01T19:36:42.853Z,66.06
2024-01-01T19:39:11.281Z,65.64
2024-01-01T19:41:45.059Z,66.32
2024-01-01T19:44:14.248Z,66.33
2024-01-01T19:46:43.053Z,66.95
2024-01-01T19:49:10.281Z,67.33
2024-01-01T19:51:40.086Z,67.10
2024-01-01T19:54:07.179Z,67.25
2024-01-01T19:56:36.113Z,67.73
2024-01-01T19:59:03.788Z,67.50
2024-01-01T20:01:33.914Z,67.38
2024-01-01T20:04:01.036Z,67.63
2024-01-01T20:06:27.895Z,67.56
2024-01-01T20:08:54.890Z,67.17
2024-01-01T20:11:25.299Z,67.56
2024-01-01T20:13:54.101Z,67.80
2024-01-01T20:16:25.842Z,67.55
2024-01-01T20:18:55.540Z,67.78
2024-01-01T20:21:24.647Z,67.98
2024-01-01T20:23:52.868Z,68.31
2024-01-01T20:26:22.294Z,68.37
2024-01-01T20:28:50.778Z,68.54
2024-01-01T20:31:22.794Z,68.89
2024-01-01T20:33:50.439Z,68.58
2024-01-01T20:36:17.545Z,68.74
2024-01-01T20:38:45.691Z,68.52
2024-01-01T20:41:15.367Z,68.65
2024-01-01T20:43:42.282Z,68.69
2024-01-01T20:46:09.528Z,69.00
2024-01-01T20:48:39.325Z,68.79
2024-01-01T20:51:06.791Z,69.14
2024-01-01T20:53:34.133Z,69.60
2024-01-01T20:56:01.416Z,69.15
2024-01-01T20:58:29.885Z,69.07
2024-01-01T21:00:57.276Z,69.17
2024-01-01T21:03:24.647Z,69.66
2024-01-01T21:05:53.198Z,68.74
2024-01-01T21:08:20.081Z,69.08
2024-01-01T21:10:47.004Z,68.73
2024-01-01T21:13:14.957Z,68.53
2024-01-01T21:15:41.835Z,68.99
2024-01-01T21:18:08.866Z,68.50
2024-01-01T21:20:35.790Z,68.94
2024-01-01T21:23:04.471Z,68.79
2024-01-01T21:25:32.387Z,68.14
2024-01-01T21:27:59.374Z,68.47
2024-01-01T21:30:26.432Z,68.13
2024-01-01T21:32:53.390Z,67.72
2024-01-01T21:35:21.355Z,67.60
2024-01-01T21:37:48.401Z,67.50
2024-01-01T21:40:17.397Z,67.52
2024-01-01T21:42:45.213Z,67.64
2024-01-01T21:45:12.389Z,67.54
2024-01-01T21:47:39.771Z,67.47
2024-01-01T21:50:08.368Z,67.73
2024-01-01T21:52:36.728Z,67.14
2024-01-01T21:55:04.051Z,67.12
2024-01-01T21:57:33.153Z,67.62
2024-01-01T22:00:00.396Z,67.36
2024-01-01T22:02:27.476Z,67.53
2024-01-01T22:04:55.758Z,67.55
2024-01-01T22:07:22.789Z,68.25
2024-01-01T22:09:50.225Z,68.26
2024-01-01T22:12:17.103Z,67.87
2024-01-01T22:14:47.146Z,67.60
2024-01-01T22:17:16.123Z,67.50
2024-01-01T22:19:43.234Z,67.57
2024-01-01T22:22:11.620Z,67.83
2024-01-01T22:24:38.527Z,67.30
2024-01-01T22:27:05.620Z,67.43
2024-01-01T22:29:32.866Z,67.71
2024-01-01T22:32:02.043Z,66.83
2024-01-01T22:34:29.501Z,66.29
2024-01-01T22:36:56.538Z,66.58
2024-01-01T22:39:23.846Z,66.33
2024-01-01T22:41:51.131Z,65.90
2024-01-01T22:44:18.625Z,65.93
2024-01-01T22:46:46.198Z,65.88
2024-01-01T22:49:16.445Z,65.52
2024-01-01T22:51:43.437Z,65.22
2024-01-01T22:54:10.614Z,65.20
2024-01-01T22:56:39.772Z,64.19
2024-01-01T22:59:06.775Z,64.25
2024-01-01T23:01:35.568Z,64.61
2024-01-01T23:04:03.926Z,64.74
2024-01-01T23:06:32.329Z,64.60
2024-01-01T23:09:00.375Z,64.46
2024-01-01T23:11:27.611Z,64.37
2024-01-01T23:13:54.949Z,64.30
2024-01-01T23:16:22.342Z,64.58
2024-01-01T23:18:49.220Z,65.30
2024-01-01T23:21:16.178Z,65.18
2024-01-01T23:23:45.908Z,65.06
2024-01-01T23:26:14.294Z,64.84
2024-01-01T23:28:41.475Z,65.22
2024-01-01T23:31:08.655Z,65.00
2024-01-01T23:33:35.629Z,65.09
2024-01-01T23:36:02.916Z,65.13
2024-01-01T23:38:29.906Z,65.46
2024-01-01T23:40:59.991Z,65.13
2024-01-01T23:43:26.937Z,65.08
2024-01-01T23:45:54.193Z,65.31
2024-01-01T23:48:24.415Z,65.46
2024-01-01T23:50:52.438Z,65.43
2024-01-01T23:53:19.293Z,65.29
2024-01-01T23:55:47.012Z,65.10
2024-01-01T23:58:16.532Z,65.24
